sensor_id;sensor_type;location;lat;lon;timestamp;P1;durP1;ratioP1;P2;durP2;ratioP2
7263;SDS011;3673;52.480;13.348;2022-11-21T00:00:24;24.48;;;14.35;;
7263;SDS011;3673;52.480;13.348;2022-11-21T00:02:56;30.60;;;14.60;;
7263;SDS011;3673;52.480;13.348;2022-11-21T00:05:24;27.98;;;15.20;;
7263;SDS011;3673;52.480;13.348;2022-11-21T00:07:51;27.30;;;14.88;;
7263;SDS011;3673;52.480;13.348;2022-11-21T00:10:19;24.25;;;14.80;;
7263;SDS011;3673;52.480;13.348;2022-11-21T00:12:46;25.20;;;14.55;;
7263;SDS011;3673;52.480;13.348;2022-11-21T00:15:12;24.13;;;14.00;;
7263;SDS011;3673;52.480;13.348;2022-11-21T00:17:40;27.13;;;15.68;;
7263;SDS011;3673;52.480;13.348;2022-11-21T00:20:07;23.50;;;14.05;;
7263;SDS011;3673;52.480;13.348;2022-11-21T00:22:35;26.30;;;14.63;;
7263;SDS011;3673;52.480;13.348;2022-11-21T00:25:02;26.05;;;14.30;;
7263;SDS011;3673;52.480;13.348;2022-11-21T00:27:29;28.60;;;15.60;;
7263;SDS011;3673;52.480;13.348;2022-11-21T00:29:56;22.70;;;12.85;;
7263;SDS011;3673;52.480;13.348;2022-11-21T00:32:23;24.85;;;14.15;;
7263;SDS011;3673;52.480;13.348;2022-11-21T00:34:51;24.40;;;14.38;;
7263;SDS011;3673;52.480;13.348;2022-11-21T00:37:17;22.90;;;13.73;;
7263;SDS011;3673;52.480;13.348;2022-11-21T00:39:44;23.60;;;15.45;;
7263;SDS011;3673;52.480;13.348;2022-11-21T00:42:11;29.02;;;14.32;;
7263;SDS011;3673;52.480;13.348;2022-11-21T00:44:38;24.25;;;14.48;;
7263;SDS011;3673;52.480;13.348;2022-11-21T00:47:04;23.95;;;13.40;;
7263;SDS011;3673;52.480;13.348;2022-11-21T00:49:31;27.48;;;15.73;;
7263;SDS011;3673;52.480;13.348;2022-11-21T00:51:59;23.60;;;14.13;;
7263;SDS011;3673;52.480;13.348;2022-11-21T00:54:26;23.95;;;14.77;;
7263;SDS011;3673;52.480;13.348;2022-11-21T00:56:53;26.20;;;14.88;;
7263;SDS011;3673;52.480;13.348;2022-11-21T00:59:20;24.92;;;15.48;;
7263;SDS011;3673;52.480;13.348;2022-11-21T01:01:46;24.35;;;14.27;;
7263;SDS011;3673;52.480;13.348;2022-11-21T01:04:13;25.77;;;14.98;;
7263;SDS011;3673;52.480;13.348;2022-11-21T01:06:40;26.40;;;15.40;;
7263;SDS011;3673;52.480;13.348;2022-11-21T01:09:09;23.98;;;14.55;;
7263;SDS011;3673;52.480;13.348;2022-11-21T01:11:35;25.15;;;14.15;;
7263;SDS011;3673;52.480;13.348;2022-11-21T01:14:02;30.38;;;16.00;;
7263;SDS011;3673;52.480;13.348;2022-11-21T01:16:29;27.13;;;15.13;;
7263;SDS011;3673;52.480;13.348;2022-11-21T01:18:56;27.70;;;16.35;;
7263;SDS011;3673;52.480;13.348;2022-11-21T01:21:23;27.33;;;15.60;;
7263;SDS011;3673;52.480;13.348;2022-11-21T01:23:53;27.15;;;14.55;;
7263;SDS011;3673;52.480;13.348;2022-11-21T01:26:22;24.55;;;14.90;;
7263;SDS011;3673;52.480;13.348;2022-11-21T01:28:51;24.85;;;14.50;;
7263;SDS011;3673;52.480;13.348;2022-11-21T01:31:19;26.58;;;14.93;;
7263;SDS011;3673;52.480;13.348;2022-11-21T01:33:47;27.02;;;14.40;;
7263;SDS011;3673;52.480;13.348;2022-11-21T01:36:16;27.15;;;14.88;;
7263;SDS011;3673;52.480;13.348;2022-11-21T01:38:45;29.00;;;15.05;;
7263;SDS011;3673;52.480;13.348;2022-11-21T01:41:15;26.42;;;14.93;;
7263;SDS011;3673;52.480;13.348;2022-11-21T01:43:45;27.60;;;15.38;;
7263;SDS011;3673;52.480;13.348;2022-11-21T01:46:12;25.77;;;14.80;;
7263;SDS011;3673;52.480;13.348;2022-11-21T01:48:42;24.60;;;14.45;;
7263;SDS011;3673;52.480;13.348;2022-11-21T01:51:16;29.23;;;16.80;;
7263;SDS011;3673;52.480;13.348;2022-11-21T01:53:49;26.95;;;14.98;;
7263;SDS011;3673;52.480;13.348;2022-11-21T01:56:22;28.27;;;16.27;;
7263;SDS011;3673;52.480;13.348;2022-11-21T01:58:51;29.30;;;15.80;;
7263;SDS011;3673;52.480;13.348;2022-11-21T02:01:23;30.13;;;15.48;;
7263;SDS011;3673;52.480;13.348;2022-11-21T02:03:50;29.25;;;15.88;;
7263;SDS011;3673;52.480;13.348;2022-11-21T02:13:23;26.45;;;15.52;;
7263;SDS011;3673;52.480;13.348;2022-11-21T02:15:51;28.60;;;16.13;;
7263;SDS011;3673;52.480;13.348;2022-11-21T02:18:18;26.17;;;16.08;;
7263;SDS011;3673;52.480;13.348;2022-11-21T02:20:46;25.95;;;15.10;;
7263;SDS011;3673;52.480;13.348;2022-11-21T02:23:19;30.08;;;17.00;;
7263;SDS011;3673;52.480;13.348;2022-11-21T02:25:54;33.90;;;16.67;;
7263;SDS011;3673;52.480;13.348;2022-11-21T02:28:21;29.42;;;16.33;;
7263;SDS011;3673;52.480;13.348;2022-11-21T02:30:49;31.42;;;16.17;;
7263;SDS011;3673;52.480;13.348;2022-11-21T02:33:17;24.83;;;14.85;;
7263;SDS011;3673;52.480;13.348;2022-11-21T02:35:44;30.50;;;16.48;;
7263;SDS011;3673;52.480;13.348;2022-11-21T02:38:24;25.25;;;15.95;;
7263;SDS011;3673;52.480;13.348;2022-11-21T02:40:59;27.75;;;15.48;;
7263;SDS011;3673;52.480;13.348;2022-11-21T02:43:32;27.83;;;16.10;;
7263;SDS011;3673;52.480;13.348;2022-11-21T02:46:04;29.25;;;15.73;;
7263;SDS011;3673;52.480;13.348;2022-11-21T02:48:31;27.00;;;15.68;;
7263;SDS011;3673;52.480;13.348;2022-11-21T02:50:58;25.38;;;15.60;;
7263;SDS011;3673;52.480;13.348;2022-11-21T02:53:25;28.38;;;17.02;;
7263;SDS011;3673;52.480;13.348;2022-11-21T02:55:52;25.30;;;16.25;;
7263;SDS011;3673;52.480;13.348;2022-11-21T02:58:20;25.27;;;15.15;;
7263;SDS011;3673;52.480;13.348;2022-11-21T03:00:47;24.73;;;14.48;;
7263;SDS011;3673;52.480;13.348;2022-11-21T03:03:14;27.65;;;16.23;;
7263;SDS011;3673;52.480;13.348;2022-11-21T03:05:41;30.40;;;16.85;;
7263;SDS011;3673;52.480;13.348;2022-11-21T03:08:08;26.70;;;14.35;;
7263;SDS011;3673;52.480;13.348;2022-11-21T03:10:35;27.35;;;16.33;;
7263;SDS011;3673;52.480;13.348;2022-11-21T03:13:02;28.52;;;16.77;;
7263;SDS011;3673;52.480;13.348;2022-11-21T03:15:31;32.00;;;17.85;;
7263;SDS011;3673;52.480;13.348;2022-11-21T03:17:59;36.05;;;18.38;;
7263;SDS011;3673;52.480;13.348;2022-11-21T03:20:27;32.40;;;17.02;;
7263;SDS011;3673;52.480;13.348;2022-11-21T03:22:54;29.90;;;17.05;;
7263;SDS011;3673;52.480;13.348;2022-11-21T03:25:21;29.90;;;16.58;;
7263;SDS011;3673;52.480;13.348;2022-11-21T03:27:49;33.42;;;16.02;;
7263;SDS011;3673;52.480;13.348;2022-11-21T03:30:17;28.40;;;17.00;;
7263;SDS011;3673;52.480;13.348;2022-11-21T03:32:46;30.70;;;18.15;;
7263;SDS011;3673;52.480;13.348;2022-11-21T03:35:13;30.33;;;17.48;;
7263;SDS011;3673;52.480;13.348;2022-11-21T03:37:40;29.08;;;17.77;;
7263;SDS011;3673;52.480;13.348;2022-11-21T03:40:07;32.17;;;18.08;;
7263;SDS011;3673;52.480;13.348;2022-11-21T03:42:35;30.70;;;17.77;;
7263;SDS011;3673;52.480;13.348;2022-11-21T03:45:02;28.50;;;18.02;;
7263;SDS011;3673;52.480;13.348;2022-11-21T03:47:30;34.30;;;18.75;;
7263;SDS011;3673;52.480;13.348;2022-11-21T03:49:58;28.83;;;16.15;;
7263;SDS011;3673;52.480;13.348;2022-11-21T03:52:25;28.92;;;16.77;;
7263;SDS011;3673;52.480;13.348;2022-11-21T03:54:52;31.17;;;17.08;;
7263;SDS011;3673;52.480;13.348;2022-11-21T03:57:19;29.00;;;15.57;;
7263;SDS011;3673;52.480;13.348;2022-11-21T03:59:46;33.38;;;16.27;;
7263;SDS011;3673;52.480;13.348;2022-11-21T04:02:12;35.05;;;17.02;;
7263;SDS011;3673;52.480;13.348;2022-11-21T04:04:39;29.13;;;16.42;;
7263;SDS011;3673;52.480;13.348;2022-11-21T04:07:07;28.63;;;16.67;;
7263;SDS011;3673;52.480;13.348;2022-11-21T04:09:34;31.27;;;17.65;;
7263;SDS011;3673;52.480;13.348;2022-11-21T04:12:01;38.35;;;17.92;;
7263;SDS011;3673;52.480;13.348;2022-11-21T04:14:27;27.98;;;15.88;;
7263;SDS011;3673;52.480;13.348;2022-11-21T04:16:54;32.95;;;17.02;;
7263;SDS011;3673;52.480;13.348;2022-11-21T04:19:21;30.30;;;16.17;;
7263;SDS011;3673;52.480;13.348;2022-11-21T04:21:48;30.73;;;16.90;;
7263;SDS011;3673;52.480;13.348;2022-11-21T04:24:16;30.98;;;16.45;;
7263;SDS011;3673;52.480;13.348;2022-11-21T04:26:43;32.90;;;16.92;;
7263;SDS011;3673;52.480;13.348;2022-11-21T04:29:09;30.48;;;16.92;;
7263;SDS011;3673;52.480;13.348;2022-11-21T04:31:36;33.05;;;18.00;;
7263;SDS011;3673;52.480;13.348;2022-11-21T04:34:03;33.25;;;18.13;;
7263;SDS011;3673;52.480;13.348;2022-11-21T04:36:30;30.35;;;16.92;;
7263;SDS011;3673;52.480;13.348;2022-11-21T04:38:57;32.08;;;17.20;;
7263;SDS011;3673;52.480;13.348;2022-11-21T04:41:25;32.05;;;19.08;;
7263;SDS011;3673;52.480;13.348;2022-11-21T04:43:52;33.97;;;17.17;;
7263;SDS011;3673;52.480;13.348;2022-11-21T04:46:18;30.45;;;17.65;;
7263;SDS011;3673;52.480;13.348;2022-11-21T04:48:45;32.63;;;18.40;;
7263;SDS011;3673;52.480;13.348;2022-11-21T04:51:12;34.53;;;18.60;;
7263;SDS011;3673;52.480;13.348;2022-11-21T04:53:39;35.33;;;17.65;;
7263;SDS011;3673;52.480;13.348;2022-11-21T04:56:05;32.88;;;18.10;;
7263;SDS011;3673;52.480;13.348;2022-11-21T04:58:33;38.70;;;18.83;;
7263;SDS011;3673;52.480;13.348;2022-11-21T05:01:04;29.08;;;17.65;;
7263;SDS011;3673;52.480;13.348;2022-11-21T05:03:32;32.53;;;18.33;;
7263;SDS011;3673;52.480;13.348;2022-11-21T05:05:59;34.50;;;19.42;;
7263;SDS011;3673;52.480;13.348;2022-11-21T05:08:26;35.20;;;17.65;;
7263;SDS011;3673;52.480;13.348;2022-11-21T05:10:53;41.60;;;20.60;;
7263;SDS011;3673;52.480;13.348;2022-11-21T05:13:38;39.38;;;19.83;;
7263;SDS011;3673;52.480;13.348;2022-11-21T05:16:05;36.28;;;19.90;;
7263;SDS011;3673;52.480;13.348;2022-11-21T05:18:32;36.15;;;19.45;;
7263;SDS011;3673;52.480;13.348;2022-11-21T05:20:59;37.25;;;18.38;;
7263;SDS011;3673;52.480;13.348;2022-11-21T05:23:27;38.38;;;19.30;;
7263;SDS011;3673;52.480;13.348;2022-11-21T05:25:54;34.10;;;19.42;;
7263;SDS011;3673;52.480;13.348;2022-11-21T05:28:20;33.72;;;18.77;;
7263;SDS011;3673;52.480;13.348;2022-11-21T05:30:49;36.88;;;19.25;;
7263;SDS011;3673;52.480;13.348;2022-11-21T05:33:15;36.38;;;20.33;;
7263;SDS011;3673;52.480;13.348;2022-11-21T05:35:44;37.03;;;19.15;;
7263;SDS011;3673;52.480;13.348;2022-11-21T05:38:11;34.58;;;18.48;;
7263;SDS011;3673;52.480;13.348;2022-11-21T05:40:38;32.28;;;17.52;;
7263;SDS011;3673;52.480;13.348;2022-11-21T05:43:05;33.65;;;18.42;;
7263;SDS011;3673;52.480;13.348;2022-11-21T05:45:50;35.83;;;19.95;;
7263;SDS011;3673;52.480;13.348;2022-11-21T05:48:18;32.33;;;18.35;;
7263;SDS011;3673;52.480;13.348;2022-11-21T05:50:46;33.67;;;19.02;;
7263;SDS011;3673;52.480;13.348;2022-11-21T05:53:14;36.42;;;19.17;;
7263;SDS011;3673;52.480;13.348;2022-11-21T05:55:41;32.15;;;18.48;;
7263;SDS011;3673;52.480;13.348;2022-11-21T05:58:08;37.40;;;20.02;;
7263;SDS011;3673;52.480;13.348;2022-11-21T06:00:35;34.42;;;19.23;;
7263;SDS011;3673;52.480;13.348;2022-11-21T06:03:04;29.65;;;17.80;;
7263;SDS011;3673;52.480;13.348;2022-11-21T06:05:50;41.42;;;19.73;;
7263;SDS011;3673;52.480;13.348;2022-11-21T06:08:17;32.65;;;18.30;;
7263;SDS011;3673;52.480;13.348;2022-11-21T06:10:44;31.27;;;17.65;;
7263;SDS011;3673;52.480;13.348;2022-11-21T06:13:11;35.60;;;17.55;;
7263;SDS011;3673;52.480;13.348;2022-11-21T06:15:47;43.17;;;19.25;;
7263;SDS011;3673;52.480;13.348;2022-11-21T06:18:17;32.72;;;18.63;;
7263;SDS011;3673;52.480;13.348;2022-11-21T06:20:45;35.80;;;19.23;;
7263;SDS011;3673;52.480;13.348;2022-11-21T06:23:11;36.38;;;18.20;;
7263;SDS011;3673;52.480;13.348;2022-11-21T06:25:38;33.10;;;18.65;;
7263;SDS011;3673;52.480;13.348;2022-11-21T06:28:05;32.75;;;19.00;;
7263;SDS011;3673;52.480;13.348;2022-11-21T06:30:32;39.05;;;21.55;;
7263;SDS011;3673;52.480;13.348;2022-11-21T06:32:59;36.03;;;19.92;;
7263;SDS011;3673;52.480;13.348;2022-11-21T06:35:31;39.20;;;21.35;;
7263;SDS011;3673;52.480;13.348;2022-11-21T06:37:57;35.38;;;20.67;;
7263;SDS011;3673;52.480;13.348;2022-11-21T06:40:24;40.70;;;23.77;;
7263;SDS011;3673;52.480;13.348;2022-11-21T06:42:51;42.35;;;22.95;;
7263;SDS011;3673;52.480;13.348;2022-11-21T06:45:18;38.38;;;21.40;;
7263;SDS011;3673;52.480;13.348;2022-11-21T06:47:45;39.70;;;22.73;;
7263;SDS011;3673;52.480;13.348;2022-11-21T06:50:12;41.15;;;23.00;;
7263;SDS011;3673;52.480;13.348;2022-11-21T06:52:40;37.47;;;21.90;;
7263;SDS011;3673;52.480;13.348;2022-11-21T06:55:07;37.25;;;21.25;;
7263;SDS011;3673;52.480;13.348;2022-11-21T06:57:35;39.13;;;20.67;;
7263;SDS011;3673;52.480;13.348;2022-11-21T07:00:02;52.03;;;26.67;;
7263;SDS011;3673;52.480;13.348;2022-11-21T07:02:30;39.08;;;23.58;;
7263;SDS011;3673;52.480;13.348;2022-11-21T07:04:57;42.55;;;23.45;;
7263;SDS011;3673;52.480;13.348;2022-11-21T07:07:24;51.20;;;27.30;;
7263;SDS011;3673;52.480;13.348;2022-11-21T07:09:52;34.78;;;20.25;;
7263;SDS011;3673;52.480;13.348;2022-11-21T07:12:19;34.63;;;19.73;;
7263;SDS011;3673;52.480;13.348;2022-11-21T07:15:18;35.83;;;19.27;;
7263;SDS011;3673;52.480;13.348;2022-11-21T07:17:45;32.05;;;18.88;;
7263;SDS011;3673;52.480;13.348;2022-11-21T07:20:12;32.05;;;19.52;;
7263;SDS011;3673;52.480;13.348;2022-11-21T07:22:39;30.90;;;18.70;;
7263;SDS011;3673;52.480;13.348;2022-11-21T07:25:07;34.83;;;19.92;;
7263;SDS011;3673;52.480;13.348;2022-11-21T07:27:34;37.22;;;21.98;;
7263;SDS011;3673;52.480;13.348;2022-11-21T07:30:01;37.28;;;20.08;;
7263;SDS011;3673;52.480;13.348;2022-11-21T07:32:28;34.60;;;20.77;;
7263;SDS011;3673;52.480;13.348;2022-11-21T07:34:55;39.03;;;20.75;;
7263;SDS011;3673;52.480;13.348;2022-11-21T07:37:22;40.38;;;21.80;;
7263;SDS011;3673;52.480;13.348;2022-11-21T07:39:48;33.72;;;20.33;;
7263;SDS011;3673;52.480;13.348;2022-11-21T07:42:16;38.78;;;21.27;;
7263;SDS011;3673;52.480;13.348;2022-11-21T07:44:43;37.70;;;22.25;;
7263;SDS011;3673;52.480;13.348;2022-11-21T07:47:10;40.05;;;21.33;;
7263;SDS011;3673;52.480;13.348;2022-11-21T07:49:37;35.05;;;21.90;;
7263;SDS011;3673;52.480;13.348;2022-11-21T07:52:04;41.63;;;22.58;;
7263;SDS011;3673;52.480;13.348;2022-11-21T07:54:31;41.63;;;24.08;;
7263;SDS011;3673;52.480;13.348;2022-11-21T07:56:57;39.85;;;22.80;;
7263;SDS011;3673;52.480;13.348;2022-11-21T07:59:26;39.63;;;23.90;;
7263;SDS011;3673;52.480;13.348;2022-11-21T08:01:52;43.22;;;24.02;;
7263;SDS011;3673;52.480;13.348;2022-11-21T08:04:19;39.30;;;21.77;;
7263;SDS011;3673;52.480;13.348;2022-11-21T08:06:46;36.75;;;23.40;;
7263;SDS011;3673;52.480;13.348;2022-11-21T08:09:13;37.08;;;22.65;;
7263;SDS011;3673;52.480;13.348;2022-11-21T08:11:40;36.95;;;21.80;;
7263;SDS011;3673;52.480;13.348;2022-11-21T08:14:07;36.95;;;21.25;;
7263;SDS011;3673;52.480;13.348;2022-11-21T08:16:35;37.10;;;21.67;;
7263;SDS011;3673;52.480;13.348;2022-11-21T08:19:01;37.55;;;21.25;;
7263;SDS011;3673;52.480;13.348;2022-11-21T08:21:29;43.10;;;22.73;;
7263;SDS011;3673;52.480;13.348;2022-11-21T08:23:56;47.85;;;24.70;;
7263;SDS011;3673;52.480;13.348;2022-11-21T08:26:23;43.78;;;23.05;;
7263;SDS011;3673;52.480;13.348;2022-11-21T08:28:49;43.28;;;23.35;;
7263;SDS011;3673;52.480;13.348;2022-11-21T08:31:16;45.20;;;23.52;;
7263;SDS011;3673;52.480;13.348;2022-11-21T08:33:44;44.13;;;24.17;;
7263;SDS011;3673;52.480;13.348;2022-11-21T08:36:11;42.47;;;22.83;;
7263;SDS011;3673;52.480;13.348;2022-11-21T08:38:38;41.00;;;23.40;;
7263;SDS011;3673;52.480;13.348;2022-11-21T08:41:05;41.30;;;21.85;;
7263;SDS011;3673;52.480;13.348;2022-11-21T08:43:49;38.33;;;21.08;;
7263;SDS011;3673;52.480;13.348;2022-11-21T08:46:16;39.70;;;19.80;;
7263;SDS011;3673;52.480;13.348;2022-11-21T08:48:44;36.83;;;18.52;;
7263;SDS011;3673;52.480;13.348;2022-11-21T08:51:11;41.83;;;20.20;;
7263;SDS011;3673;52.480;13.348;2022-11-21T08:53:38;42.95;;;19.92;;
7263;SDS011;3673;52.480;13.348;2022-11-21T08:56:04;33.90;;;18.52;;
7263;SDS011;3673;52.480;13.348;2022-11-21T08:58:31;33.40;;;18.08;;
7263;SDS011;3673;52.480;13.348;2022-11-21T09:00:58;35.38;;;18.38;;
7263;SDS011;3673;52.480;13.348;2022-11-21T09:03:25;45.08;;;19.23;;
7263;SDS011;3673;52.480;13.348;2022-11-21T09:05:55;34.35;;;18.02;;
7263;SDS011;3673;52.480;13.348;2022-11-21T09:08:22;39.97;;;19.95;;
7263;SDS011;3673;52.480;13.348;2022-11-21T09:10:49;39.20;;;19.88;;
7263;SDS011;3673;52.480;13.348;2022-11-21T09:13:17;37.25;;;17.90;;
7263;SDS011;3673;52.480;13.348;2022-11-21T09:15:44;46.75;;;19.42;;
7263;SDS011;3673;52.480;13.348;2022-11-21T09:18:28;43.20;;;19.65;;
7263;SDS011;3673;52.480;13.348;2022-11-21T09:20:56;43.90;;;19.92;;
7263;SDS011;3673;52.480;13.348;2022-11-21T09:23:23;39.50;;;19.10;;
7263;SDS011;3673;52.480;13.348;2022-11-21T09:25:50;38.53;;;19.58;;
7263;SDS011;3673;52.480;13.348;2022-11-21T09:28:17;42.22;;;18.05;;
7263;SDS011;3673;52.480;13.348;2022-11-21T09:30:44;41.90;;;20.02;;
7263;SDS011;3673;52.480;13.348;2022-11-21T09:33:11;41.72;;;18.92;;
7263;SDS011;3673;52.480;13.348;2022-11-21T09:35:40;36.90;;;17.05;;
7263;SDS011;3673;52.480;13.348;2022-11-21T09:38:09;36.88;;;16.17;;
7263;SDS011;3673;52.480;13.348;2022-11-21T09:40:36;34.92;;;16.08;;
7263;SDS011;3673;52.480;13.348;2022-11-21T09:43:15;34.72;;;16.58;;
7263;SDS011;3673;52.480;13.348;2022-11-21T09:46:05;33.42;;;16.98;;
7263;SDS011;3673;52.480;13.348;2022-11-21T09:48:38;33.47;;;15.77;;
7263;SDS011;3673;52.480;13.348;2022-11-21T09:51:16;33.38;;;16.90;;
7263;SDS011;3673;52.480;13.348;2022-11-21T09:53:50;32.72;;;15.48;;
7263;SDS011;3673;52.480;13.348;2022-11-21T09:56:23;35.95;;;16.83;;
7263;SDS011;3673;52.480;13.348;2022-11-21T09:58:55;33.30;;;14.80;;
7263;SDS011;3673;52.480;13.348;2022-11-21T10:01:37;28.98;;;13.55;;
7263;SDS011;3673;52.480;13.348;2022-11-21T10:04:04;29.35;;;14.85;;
7263;SDS011;3673;52.480;13.348;2022-11-21T10:06:32;27.65;;;14.77;;
7263;SDS011;3673;52.480;13.348;2022-11-21T10:09:11;26.58;;;13.32;;
7263;SDS011;3673;52.480;13.348;2022-11-21T10:11:50;25.15;;;12.73;;
7263;SDS011;3673;52.480;13.348;2022-11-21T10:14:44;28.80;;;13.68;;
7263;SDS011;3673;52.480;13.348;2022-11-21T10:17:27;24.38;;;12.57;;
7263;SDS011;3673;52.480;13.348;2022-11-21T10:23:16;25.05;;;12.27;;
7263;SDS011;3673;52.480;13.348;2022-11-21T10:26:16;24.67;;;11.95;;
7263;SDS011;3673;52.480;13.348;2022-11-21T10:28:50;19.08;;;11.00;;
7263;SDS011;3673;52.480;13.348;2022-11-21T10:31:22;22.75;;;11.05;;
7263;SDS011;3673;52.480;13.348;2022-11-21T10:33:50;16.00;;;8.77;;
7263;SDS011;3673;52.480;13.348;2022-11-21T10:36:23;17.60;;;9.07;;
7263;SDS011;3673;52.480;13.348;2022-11-21T10:38:57;19.70;;;11.00;;
7263;SDS011;3673;52.480;13.348;2022-11-21T10:41:33;20.58;;;9.95;;
7263;SDS011;3673;52.480;13.348;2022-11-21T10:44:10;21.52;;;11.10;;
7263;SDS011;3673;52.480;13.348;2022-11-21T10:47:11;20.02;;;10.00;;
7263;SDS011;3673;52.480;13.348;2022-11-21T10:49:40;16.23;;;8.70;;
7263;SDS011;3673;52.480;13.348;2022-11-21T10:52:09;19.85;;;9.57;;
7263;SDS011;3673;52.480;13.348;2022-11-21T10:57:35;19.42;;;9.75;;
7263;SDS011;3673;52.480;13.348;2022-11-21T11:00:21;17.33;;;9.98;;
7263;SDS011;3673;52.480;13.348;2022-11-21T11:03:00;21.25;;;10.68;;
7263;SDS011;3673;52.480;13.348;2022-11-21T11:05:33;17.63;;;9.23;;
7263;SDS011;3673;52.480;13.348;2022-11-21T11:08:02;18.95;;;9.30;;
7263;SDS011;3673;52.480;13.348;2022-11-21T11:10:32;19.17;;;10.30;;
7263;SDS011;3673;52.480;13.348;2022-11-21T11:13:02;22.15;;;10.68;;
7263;SDS011;3673;52.480;13.348;2022-11-21T11:15:59;18.15;;;9.48;;
7263;SDS011;3673;52.480;13.348;2022-11-21T11:18:30;18.70;;;10.10;;
7263;SDS011;3673;52.480;13.348;2022-11-21T11:21:13;19.45;;;10.15;;
7263;SDS011;3673;52.480;13.348;2022-11-21T11:23:43;16.17;;;8.60;;
7263;SDS011;3673;52.480;13.348;2022-11-21T11:26:19;16.95;;;9.20;;
7263;SDS011;3673;52.480;13.348;2022-11-21T11:28:51;19.13;;;9.90;;
7263;SDS011;3673;52.480;13.348;2022-11-21T11:31:38;19.65;;;9.75;;
7263;SDS011;3673;52.480;13.348;2022-11-21T11:34:09;18.42;;;10.23;;
7263;SDS011;3673;52.480;13.348;2022-11-21T11:36:41;16.35;;;9.80;;
7263;SDS011;3673;52.480;13.348;2022-11-21T11:39:25;17.45;;;9.82;;
7263;SDS011;3673;52.480;13.348;2022-11-21T11:42:06;17.30;;;9.40;;
7263;SDS011;3673;52.480;13.348;2022-11-21T11:45:43;16.90;;;9.40;;
7263;SDS011;3673;52.480;13.348;2022-11-21T11:48:42;13.63;;;7.15;;
7263;SDS011;3673;52.480;13.348;2022-11-21T11:51:12;16.38;;;9.43;;
7263;SDS011;3673;52.480;13.348;2022-11-21T11:53:48;15.93;;;9.93;;
7263;SDS011;3673;52.480;13.348;2022-11-21T11:56:19;14.85;;;9.35;;
7263;SDS011;3673;52.480;13.348;2022-11-21T11:58:51;15.05;;;8.80;;
7263;SDS011;3673;52.480;13.348;2022-11-21T12:01:26;18.48;;;10.48;;
7263;SDS011;3673;52.480;13.348;2022-11-21T12:04:00;15.57;;;9.35;;
7263;SDS011;3673;52.480;13.348;2022-11-21T12:06:32;16.50;;;8.95;;
7263;SDS011;3673;52.480;13.348;2022-11-21T12:09:06;16.55;;;10.25;;
7263;SDS011;3673;52.480;13.348;2022-11-21T12:11:49;17.98;;;11.23;;
7263;SDS011;3673;52.480;13.348;2022-11-21T12:14:48;19.25;;;9.90;;
7263;SDS011;3673;52.480;13.348;2022-11-21T12:17:49;19.25;;;10.02;;
7263;SDS011;3673;52.480;13.348;2022-11-21T12:20:26;21.45;;;10.68;;
7263;SDS011;3673;52.480;13.348;2022-11-21T12:22:58;30.40;;;16.00;;
7263;SDS011;3673;52.480;13.348;2022-11-21T12:25:27;24.80;;;13.45;;
7263;SDS011;3673;52.480;13.348;2022-11-21T12:28:07;19.13;;;11.60;;
7263;SDS011;3673;52.480;13.348;2022-11-21T12:30:48;19.80;;;11.25;;
7263;SDS011;3673;52.480;13.348;2022-11-21T12:33:29;23.75;;;11.88;;
7263;SDS011;3673;52.480;13.348;2022-11-21T12:36:10;20.08;;;11.80;;
7263;SDS011;3673;52.480;13.348;2022-11-21T12:39:01;19.33;;;11.77;;
7263;SDS011;3673;52.480;13.348;2022-11-21T12:41:42;28.80;;;15.70;;
7263;SDS011;3673;52.480;13.348;2022-11-21T12:44:39;34.08;;;19.25;;
7263;SDS011;3673;52.480;13.348;2022-11-21T12:47:30;22.40;;;11.68;;
7263;SDS011;3673;52.480;13.348;2022-11-21T12:50:35;47.58;;;23.08;;
7263;SDS011;3673;52.480;13.348;2022-11-21T12:53:32;45.00;;;20.38;;
7263;SDS011;3673;52.480;13.348;2022-11-21T12:56:27;29.40;;;16.70;;
7263;SDS011;3673;52.480;13.348;2022-11-21T12:59:03;29.50;;;15.82;;
7263;SDS011;3673;52.480;13.348;2022-11-21T13:01:33;85.97;;;38.15;;
7263;SDS011;3673;52.480;13.348;2022-11-21T13:04:10;34.35;;;18.17;;
7263;SDS011;3673;52.480;13.348;2022-11-21T13:06:44;25.90;;;13.63;;
7263;SDS011;3673;52.480;13.348;2022-11-21T13:09:13;25.13;;;14.93;;
7263;SDS011;3673;52.480;13.348;2022-11-21T13:11:45;26.00;;;14.60;;
7263;SDS011;3673;52.480;13.348;2022-11-21T13:14:26;26.88;;;14.80;;
7263;SDS011;3673;52.480;13.348;2022-11-21T13:17:03;28.88;;;15.15;;
7263;SDS011;3673;52.480;13.348;2022-11-21T13:19:53;20.30;;;11.80;;
7263;SDS011;3673;52.480;13.348;2022-11-21T13:25:34;30.42;;;15.50;;
7263;SDS011;3673;52.480;13.348;2022-11-21T13:28:22;25.90;;;13.93;;
7263;SDS011;3673;52.480;13.348;2022-11-21T13:30:59;25.40;;;14.00;;
7263;SDS011;3673;52.480;13.348;2022-11-21T13:33:46;28.33;;;14.25;;
7263;SDS011;3673;52.480;13.348;2022-11-21T13:42:01;29.40;;;16.00;;
7263;SDS011;3673;52.480;13.348;2022-11-21T13:44:56;36.17;;;16.55;;
7263;SDS011;3673;52.480;13.348;2022-11-21T13:50:50;31.90;;;17.80;;
7263;SDS011;3673;52.480;13.348;2022-11-21T13:54:08;26.92;;;14.10;;
7263;SDS011;3673;52.480;13.348;2022-11-21T13:57:08;104.90;;;34.90;;
7263;SDS011;3673;52.480;13.348;2022-11-21T13:59:54;39.17;;;18.73;;
7263;SDS011;3673;52.480;13.348;2022-11-21T14:03:01;23.20;;;13.83;;
7263;SDS011;3673;52.480;13.348;2022-11-21T14:05:51;24.45;;;14.07;;
7263;SDS011;3673;52.480;13.348;2022-11-21T14:08:43;21.65;;;13.13;;
7263;SDS011;3673;52.480;13.348;2022-11-21T14:11:46;19.13;;;12.25;;
7263;SDS011;3673;52.480;13.348;2022-11-21T14:14:26;24.48;;;13.07;;
7263;SDS011;3673;52.480;13.348;2022-11-21T14:17:08;18.15;;;11.45;;
7263;SDS011;3673;52.480;13.348;2022-11-21T14:19:50;18.40;;;12.52;;
7263;SDS011;3673;52.480;13.348;2022-11-21T14:22:23;22.42;;;13.68;;
7263;SDS011;3673;52.480;13.348;2022-11-21T14:24:53;35.28;;;18.50;;
7263;SDS011;3673;52.480;13.348;2022-11-21T14:27:23;25.67;;;15.05;;
7263;SDS011;3673;52.480;13.348;2022-11-21T14:29:54;28.75;;;15.40;;
7263;SDS011;3673;52.480;13.348;2022-11-21T14:32:25;22.92;;;14.05;;
7263;SDS011;3673;52.480;13.348;2022-11-21T14:35:05;27.58;;;15.13;;
7263;SDS011;3673;52.480;13.348;2022-11-21T14:37:38;25.90;;;15.68;;
7263;SDS011;3673;52.480;13.348;2022-11-21T14:40:09;28.05;;;15.50;;
7263;SDS011;3673;52.480;13.348;2022-11-21T14:42:40;27.05;;;15.48;;
7263;SDS011;3673;52.480;13.348;2022-11-21T14:45:12;25.95;;;15.65;;
7263;SDS011;3673;52.480;13.348;2022-11-21T14:47:47;26.52;;;17.42;;
7263;SDS011;3673;52.480;13.348;2022-11-21T14:50:22;25.38;;;15.68;;
7263;SDS011;3673;52.480;13.348;2022-11-21T14:52:52;25.27;;;16.05;;
7263;SDS011;3673;52.480;13.348;2022-11-21T14:55:23;38.88;;;19.23;;
7263;SDS011;3673;52.480;13.348;2022-11-21T14:57:54;26.35;;;15.88;;
7263;SDS011;3673;52.480;13.348;2022-11-21T15:00:22;25.20;;;15.35;;
7263;SDS011;3673;52.480;13.348;2022-11-21T15:02:52;31.65;;;18.15;;
7263;SDS011;3673;52.480;13.348;2022-11-21T15:05:27;28.17;;;15.77;;
7263;SDS011;3673;52.480;13.348;2022-11-21T15:07:56;25.00;;;15.63;;
7263;SDS011;3673;52.480;13.348;2022-11-21T15:10:26;28.25;;;16.23;;
7263;SDS011;3673;52.480;13.348;2022-11-21T15:12:59;34.85;;;18.33;;
7263;SDS011;3673;52.480;13.348;2022-11-21T15:15:31;30.70;;;16.33;;
7263;SDS011;3673;52.480;13.348;2022-11-21T15:18:02;29.00;;;15.65;;
7263;SDS011;3673;52.480;13.348;2022-11-21T15:20:31;53.72;;;24.45;;
7263;SDS011;3673;52.480;13.348;2022-11-21T15:22:59;38.92;;;20.67;;
7263;SDS011;3673;52.480;13.348;2022-11-21T15:25:27;40.13;;;21.95;;
7263;SDS011;3673;52.480;13.348;2022-11-21T15:28:06;33.85;;;19.80;;